Time;durP1;ratioP1;P1;durP2;ratioP2;P2;SDS_P1;SDS_P2;PMS_P1;PMS_P2;Temp;Humidity;BMP_temperature;BMP_pressure;BME280_temperature;BME280_humidity;BME280_pressure;Samples;Min_cycle;Max_cycle;Signal;HPM_P1;HPM_P2
2023/01/01 00:01:52;;;;;;;1.30;1.30;;;18.10;68.20;;;;;;5087269;27;43589;-76
2023/01/01 00:04:20;;;;;;;1.30;1.30;;;18.10;68.60;;;;;;5088636;28;43817;-74
2023/01/01 00:06:49;;;;;;;1.13;1.13;;;18.10;68.50;;;;;;5069679;28;44439;-75
2023/01/01 00:12:02;;;;;;;1.40;1.40;;;18.10;68.40;;;;;;5088969;28;43449;-76
2023/01/01 00:14:30;;;;;;;1.17;1.17;;;18.10;68.40;;;;;;5088453;28;44039;-77
2023/01/01 00:16:58;;;;;;;1.50;1.50;;;18.10;68.60;;;;;;5066880;28;43477;-77
2023/01/01 00:19:26;;;;;;;1.30;1.30;;;18.00;68.80;;;;;;5088249;28;43411;-77
2023/01/01 00:21:55;;;;;;;1.50;1.50;;;18.10;68.70;;;;;;5082895;28;44146;-77
2023/01/01 00:24:23;;;;;;;1.30;1.30;;;18.10;68.60;;;;;;5070040;28;45655;-76
2023/01/01 00:26:51;;;;;;;1.50;1.50;;;18.10;68.60;;;;;;5069542;28;44585;-76
2023/01/01 00:29:19;;;;;;;1.30;1.30;;;18.10;68.70;;;;;;5069711;28;43425;-77
2023/01/01 00:31:47;;;;;;;1.17;1.17;;;18.00;68.60;;;;;;5088641;28;44101;-77
2023/01/01 00:34:15;;;;;;;1.30;1.30;;;18.00;69.60;;;;;;5083567;28;44310;-77
2023/01/01 00:36:43;;;;;;;1.50;1.50;;;18.10;68.80;;;;;;5087444;28;43443;-77
2023/01/01 00:39:12;;;;;;;1.20;1.20;;;18.20;68.40;;;;;;5069481;28;43467;-77
2023/01/01 00:41:40;;;;;;;1.33;1.33;;;18.30;68.00;;;;;;5088476;28;43497;-77
2023/01/01 00:44:08;;;;;;;1.40;1.40;;;18.40;67.80;;;;;;5068872;28;45744;-77
2023/01/01 00:46:36;;;;;;;1.50;1.50;;;18.40;67.70;;;;;;5087388;28;43414;-76
2023/01/01 00:49:04;;;;;;;1.40;1.40;;;18.30;67.90;;;;;;5083228;28;43513;-77
2023/01/01 00:51:32;;;;;;;1.40;1.40;;;18.30;67.90;;;;;;5088330;28;43538;-76
2023/01/01 00:54:04;;;;;;;1.60;1.60;;;18.30;67.90;;;;;;5069170;28;45589;-77
2023/01/01 00:56:34;;;;;;;1.33;1.33;;;18.30;68.00;;;;;;5087823;28;43403;-77
2023/01/01 00:59:02;;;;;;;1.43;1.43;;;18.20;68.00;;;;;;5081620;28;43351;-75
2023/01/01 01:01:30;;;;;;;1.40;1.40;;;18.20;68.10;;;;;;5088191;28;43426;-77
2023/01/01 01:03:58;;;;;;;1.30;1.30;;;18.20;68.50;;;;;;5083342;28;43857;-77
2023/01/01 01:06:26;;;;;;;1.40;1.40;;;18.20;68.40;;;;;;5084434;28;43911;-76
2023/01/01 01:08:54;;;;;;;1.50;1.50;;;18.20;68.40;;;;;;5062936;28;43455;-77
2023/01/01 01:11:22;;;;;;;1.40;1.40;;;18.10;68.30;;;;;;5067339;28;43397;-76
2023/01/01 01:13:53;;;;;;;1.40;1.40;;;18.10;68.30;;;;;;5080927;28;43623;-75
2023/01/01 01:16:25;;;;;;;1.30;1.30;;;18.10;68.50;;;;;;5083686;28;43730;-76
2023/01/01 01:18:54;;;;;;;1.50;1.50;;;18.10;68.80;;;;;;5069166;28;43553;-76
2023/01/01 01:21:22;;;;;;;1.50;1.50;;;18.10;68.60;;;;;;5087967;28;43522;-77
2023/01/01 01:23:50;;;;;;;1.27;1.27;;;18.20;68.20;;;;;;5087206;28;43975;-76
2023/01/01 01:26:20;;;;;;;1.30;1.30;;;18.30;68.10;;;;;;5087299;28;43431;-74
2023/01/01 01:28:48;;;;;;;1.30;1.30;;;18.30;68.10;;;;;;5087400;28;43435;-76
2023/01/01 01:31:18;;;;;;;1.70;1.70;;;18.20;68.00;;;;;;5085001;28;43788;-76
2023/01/01 01:33:47;;;;;;;1.37;1.37;;;18.20;68.30;;;;;;5086960;28;43857;-76
2023/01/01 01:36:15;;;;;;;1.60;1.60;;;18.20;68.20;;;;;;5087008;28;44068;-76
2023/01/01 01:38:43;;;;;;;1.43;1.43;;;18.20;68.20;;;;;;5087244;28;43415;-77
2023/01/01 01:41:11;;;;;;;1.40;1.40;;;18.20;68.20;;;;;;5085859;27;43566;-77
2023/01/01 01:43:56;;;;;;;1.50;1.50;;;18.20;68.30;;;;;;5086462;28;44193;-75
2023/01/01 01:46:32;;;;;;;1.30;1.30;;;18.10;68.40;;;;;;5087279;28;44011;-76
2023/01/01 01:49:02;;;;;;;1.43;1.43;;;18.20;68.70;;;;;;5087240;28;43422;-78
2023/01/01 01:51:32;;;;;;;1.47;1.47;;;18.20;68.50;;;;;;5087206;28;43539;-77
2023/01/01 01:54:02;;;;;;;1.47;1.47;;;18.10;68.40;;;;;;5068277;28;46271;-76
2023/01/01 01:56:31;;;;;;;1.50;1.50;;;18.10;68.40;;;;;;5086432;28;43483;-77
2023/01/01 01:58:59;;;;;;;1.47;1.47;;;18.10;68.50;;;;;;5083865;28;43355;-77
2023/01/01 02:01:29;;;;;;;1.40;1.40;;;18.10;68.70;;;;;;5085309;28;44610;-71
2023/01/01 02:03:57;;;;;;;1.43;1.43;;;18.10;68.80;;;;;;5086486;28;43988;-73
2023/01/01 02:06:26;;;;;;;1.40;1.40;;;18.20;68.50;;;;;;5087102;28;43496;-72
2023/01/01 02:08:54;;;;;;;1.30;1.30;;;18.30;68.20;;;;;;5087007;28;43469;-71
2023/01/01 02:11:22;;;;;;;1.30;1.30;;;18.40;67.90;;;;;;5087183;28;43600;-71
2023/01/01 02:13:50;;;;;;;1.47;1.47;;;18.40;67.80;;;;;;5081361;28;44469;-70
2023/01/01 02:16:20;;;;;;;1.20;1.20;;;18.30;67.90;;;;;;5086378;28;43475;-70
2023/01/01 02:18:52;;;;;;;1.30;1.30;;;18.30;68.00;;;;;;5083895;28;43462;-72
2023/01/01 02:21:21;;;;;;;1.50;1.50;;;18.30;67.90;;;;;;5086723;28;43956;-71
2023/01/01 02:24:17;;;;;;;1.50;1.50;;;18.30;68.00;;;;;;5085181;28;43576;-72
2023/01/01 02:26:54;;;;;;;1.30;1.30;;;18.20;68.00;;;;;;5083370;28;43492;-71
2023/01/01 02:29:42;;;;;;;1.40;1.40;;;18.20;68.30;;;;;;5086177;28;43948;-70
2023/01/01 02:32:11;;;;;;;1.30;1.30;;;18.10;68.50;;;;;;5082269;28;43433;-71
2023/01/01 02:34:42;;;;;;;1.30;1.30;;;18.20;68.50;;;;;;5086058;28;43937;-71
2023/01/01 02:37:11;;;;;;;1.30;1.30;;;18.10;68.30;;;;;;5085886;27;43427;-72
2023/01/01 02:39:42;;;;;;;1.33;1.33;;;18.20;68.40;;;;;;5086267;28;43505;-70
2023/01/01 02:42:10;;;;;;;1.40;1.40;;;18.10;68.40;;;;;;5086421;28;43487;-71
2023/01/01 02:44:40;;;;;;;1.50;1.50;;;18.10;68.60;;;;;;5086247;28;43933;-70
2023/01/01 02:47:14;;;;;;;1.40;1.40;;;18.10;68.90;;;;;;5067704;28;46307;-71
2023/01/01 02:49:53;;;;;;;1.40;1.40;;;18.20;68.70;;;;;;5086343;28;43475;-71
2023/01/01 02:52:31;;;;;;;1.30;1.30;;;18.30;68.30;;;;;;5086048;28;43478;-70
2023/01/01 02:55:02;;;;;;;1.50;1.50;;;18.30;68.10;;;;;;5061404;28;46335;-70
2023/01/01 02:57:33;;;;;;;1.40;1.40;;;18.20;68.00;;;;;;5086078;28;43483;-72
2023/01/01 03:03:08;;;;;;;1.40;1.40;;;18.20;68.30;;;;;;5067441;28;43572;-70
2023/01/01 03:06:21;;;;;;;1.30;1.30;;;18.20;68.20;;;;;;5082657;28;43801;-71
2023/01/01 03:08:30;;;;;;;1.20;1.20;;;18.20;68.30;;;;;;5082295;28;43455;-70
2023/01/01 03:11:00;;;;;;;1.23;1.23;;;18.20;68.30;;;;;;5084689;28;43454;-72
2023/01/01 03:13:31;;;;;;;1.30;1.30;;;18.10;68.30;;;;;;5086264;28;43510;-71
2023/01/01 03:16:00;;;;;;;1.30;1.30;;;18.10;68.70;;;;;;5085626;28;44862;-72
2023/01/01 03:18:32;;;;;;;1.40;1.40;;;18.20;68.70;;;;;;5085764;28;44126;-70
2023/01/01 03:21:00;;;;;;;1.30;1.30;;;18.30;68.30;;;;;;5086124;28;43375;-71
2023/01/01 03:23:30;;;;;;;1.20;1.20;;;18.30;68.00;;;;;;5065243;28;43473;-70
2023/01/01 03:25:59;;;;;;;1.50;1.50;;;18.30;67.90;;;;;;5085149;28;43707;-70
2023/01/01 03:28:29;;;;;;;1.50;1.50;;;18.30;68.10;;;;;;5085796;28;43445;-71
2023/01/01 03:30:59;;;;;;;1.23;1.23;;;18.20;68.30;;;;;;5085541;28;43438;-72
2023/01/01 03:33:30;;;;;;;1.20;1.20;;;18.30;68.30;;;;;;5087131;27;43901;-71
2023/01/01 03:36:00;;;;;;;1.30;1.30;;;18.20;68.10;;;;;;5087084;28;43825;-71
2023/01/01 03:38:30;;;;;;;1.30;1.30;;;18.20;68.10;;;;;;5087955;28;43422;-70
2023/01/01 03:41:00;;;;;;;1.30;1.30;;;18.20;68.20;;;;;;5089019;28;44076;-70
2023/01/01 03:43:33;;;;;;;1.27;1.20;;;18.20;68.30;;;;;;5082525;28;43391;-71
2023/01/01 03:46:01;;;;;;;1.20;1.20;;;18.10;68.60;;;;;;5088807;28;43856;-70
2023/01/01 03:48:54;;;;;;;1.17;1.17;;;18.10;68.50;;;;;;5089027;28;43553;-70
2023/01/01 03:51:30;;;;;;;1.30;1.30;;;18.10;68.40;;;;;;5086706;28;43426;-71
2023/01/01 03:54:00;;;;;;;1.10;1.10;;;18.10;68.40;;;;;;5089616;28;43560;-71
2023/01/01 03:56:32;;;;;;;1.20;1.20;;;18.10;68.50;;;;;;5088601;28;44569;-71
2023/01/01 03:59:02;;;;;;;1.20;1.20;;;18.10;68.60;;;;;;5070029;28;44205;-70
2023/01/01 04:01:31;;;;;;;1.10;1.10;;;18.10;68.80;;;;;;5070206;28;43378;-71
2023/01/01 04:04:01;;;;;;;1.30;1.30;;;18.20;68.60;;;;;;5089210;28;43411;-71
2023/01/01 04:06:29;;;;;;;1.20;1.20;;;18.30;68.20;;;;;;5088419;28;43838;-70
2023/01/01 04:08:57;;;;;;;1.20;1.20;;;18.40;68.00;;;;;;5088410;28;43841;-69
2023/01/01 04:14:13;;;;;;;1.13;1.13;;;18.30;67.90;;;;;;5070523;28;43522;-71
2023/01/01 04:16:41;;;;;;;1.27;1.27;;;18.30;68.00;;;;;;5087191;28;43864;-72
2023/01/01 04:19:10;;;;;;;1.27;1.27;;;18.30;68.00;;;;;;5086978;28;43917;-71
2023/01/01 04:21:38;;;;;;;1.20;1.20;;;18.30;68.00;;;;;;5088379;28;43406;-70
2023/01/01 04:24:07;;;;;;;1.17;1.17;;;18.20;68.00;;;;;;5088797;28;43439;-71
2023/01/01 04:26:35;;;;;;;1.10;1.10;;;18.20;68.20;;;;;;5087747;28;43889;-71
2023/01/01 04:29:02;;;;;;;1.30;1.30;;;18.20;68.60;;;;;;5089832;27;43464;-71
2023/01/01 04:31:30;;;;;;;1.20;1.20;;;18.20;68.60;;;;;;5088694;28;43488;-71
2023/01/01 04:33:58;;;;;;;1.10;1.10;;;18.20;68.40;;;;;;5083283;28;43424;-70
2023/01/01 04:36:28;;;;;;;1.30;1.30;;;18.20;68.40;;;;;;5088020;28;43902;-71
2023/01/01 04:38:55;;;;;;;1.13;1.13;;;18.10;68.40;;;;;;5084651;28;43451;-71
2023/01/01 04:41:23;;;;;;;1.33;1.33;;;18.10;69.30;;;;;;5088314;28;43537;-71
2023/01/01 04:43:51;;;;;;;1.13;1.13;;;18.10;68.80;;;;;;5088662;28;43936;-72
2023/01/01 04:46:20;;;;;;;1.00;1.00;;;18.10;68.70;;;;;;5069126;27;45000;-72
2023/01/01 04:48:48;;;;;;;1.00;1.00;;;18.10;68.60;;;;;;5082304;28;43497;-72
2023/01/01 04:51:16;;;;;;;1.20;1.20;;;18.10;68.60;;;;;;5070055;28;43486;-72
2023/01/01 04:53:46;;;;;;;1.20;1.20;;;18.10;68.70;;;;;;5088392;28;43526;-72
2023/01/01 04:56:15;;;;;;;1.10;1.10;;;18.10;68.70;;;;;;5087700;28;43830;-71
2023/01/01 04:58:43;;;;;;;1.20;1.20;;;18.00;68.90;;;;;;5084591;28;43372;-70
2023/01/01 05:01:15;;;;;;;1.30;1.30;;;18.10;68.80;;;;;;5068947;28;43438;-71
2023/01/01 05:03:43;;;;;;;1.23;1.23;;;18.20;68.40;;;;;;5085667;28;43342;-73
2023/01/01 05:06:11;;;;;;;1.37;1.37;;;18.30;68.10;;;;;;5087857;28;43942;-70
2023/01/01 05:08:40;;;;;;;1.00;1.00;;;18.30;67.90;;;;;;5087444;28;43437;-70
2023/01/01 05:11:10;;;;;;;1.10;1.10;;;18.30;68.00;;;;;;5087595;28;43414;-69
2023/01/01 05:13:39;;;;;;;1.17;1.17;;;18.30;68.30;;;;;;5088353;28;44026;-70
2023/01/01 05:16:08;;;;;;;1.27;1.27;;;18.30;68.20;;;;;;5084249;28;43868;-71
2023/01/01 05:18:36;;;;;;;1.00;1.00;;;18.30;68.10;;;;;;5086420;28;43462;-71
2023/01/01 05:21:05;;;;;;;1.00;1.00;;;18.20;68.00;;;;;;5087509;28;43493;-70
2023/01/01 05:23:33;;;;;;;1.10;1.10;;;18.20;68.20;;;;;;5069115;28;43567;-72
2023/01/01 05:26:01;;;;;;;1.33;1.33;;;18.20;68.40;;;;;;5088560;27;43837;-71
2023/01/01 05:28:30;;;;;;;1.10;1.10;;;18.10;68.60;;;;;;5068893;28;45488;-72
2023/01/01 05:30:58;;;;;;;1.20;1.20;;;18.20;68.50;;;;;;5085291;28;43326;-72
2023/01/01 05:33:27;;;;;;;1.17;1.17;;;18.20;68.40;;;;;;5088124;28;43457;-71
2023/01/01 05:35:55;;;;;;;1.00;1.00;;;18.20;68.50;;;;;;5068513;28;45297;-71
2023/01/01 05:38:23;;;;;;;1.20;1.20;;;18.10;68.50;;;;;;5087567;28;43428;-70
2023/01/01 05:40:51;;;;;;;0.93;0.93;;;18.10;68.60;;;;;;5087572;28;43913;-70
2023/01/01 05:43:19;;;;;;;1.17;1.17;;;18.10;68.90;;;;;;5068952;28;43679;-71
2023/01/01 05:45:48;;;;;;;1.07;1.07;;;18.10;68.70;;;;;;5085370;28;45047;-70
2023/01/01 05:48:16;;;;;;;1.20;1.20;;;18.10;68.60;;;;;;5068662;28;44360;-70
2023/01/01 05:50:44;;;;;;;1.00;1.00;;;18.10;68.60;;;;;;5068418;28;43523;-71
2023/01/01 05:53:13;;;;;;;0.90;0.90;;;18.10;68.70;;;;;;5087662;28;44067;-70
2023/01/01 05:55:41;;;;;;;1.20;1.20;;;18.10;68.80;;;;;;5086863;28;43917;-70
2023/01/01 05:58:09;;;;;;;1.00;1.00;;;18.10;69.00;;;;;;5085839;27;43389;-71
2023/01/01 06:00:37;;;;;;;1.20;1.20;;;18.20;68.80;;;;;;5086947;28;43510;-70
2023/01/01 06:03:06;;;;;;;1.07;1.07;;;18.30;68.40;;;;;;5087381;28;43458;-71
2023/01/01 06:05:35;;;;;;;1.20;1.20;;;18.40;68.00;;;;;;5086841;28;43860;-70
2023/01/01 06:08:03;;;;;;;1.00;1.00;;;18.40;67.70;;;;;;5086822;28;43345;-70
2023/01/01 06:10:30;;;;;;;1.10;1.10;;;18.40;67.70;;;;;;5087163;28;43411;-71
2023/01/01 06:12:58;;;;;;;1.00;1.00;;;18.40;68.00;;;;;;5086522;28;43511;-72
2023/01/01 06:15:26;;;;;;;1.00;1.00;;;18.40;68.00;;;;;;5080111;28;43857;-73
2023/01/01 06:17:54;;;;;;;0.93;0.93;;;18.40;68.00;;;;;;5086344;28;43411;-70
2023/01/01 06:20:23;;;;;;;1.10;1.10;;;18.30;67.90;;;;;;5067998;28;44078;-71
2023/01/01 06:22:51;;;;;;;1.10;1.10;;;18.30;68.10;;;;;;5087233;28;43514;-73
2023/01/01 06:25:19;;;;;;;1.20;1.20;;;18.20;68.20;;;;;;5086186;28;43938;-70
2023/01/01 06:27:47;;;;;;;1.20;1.20;;;18.20;68.50;;;;;;5079635;28;44138;-70
2023/01/01 06:30:16;;;;;;;1.00;1.00;;;18.20;68.40;;;;;;5068645;28;43411;-72
2023/01/01 06:32:44;;;;;;;0.90;0.90;;;18.20;68.30;;;;;;5084071;28;43491;-70
2023/01/01 06:35:12;;;;;;;1.00;1.00;;;18.20;68.40;;;;;;5086049;28;43901;-72
2023/01/01 06:37:41;;;;;;;1.07;1.07;;;18.20;68.50;;;;;;5086563;28;43423;-71
2023/01/01 06:40:10;;;;;;;1.07;1.07;;;18.10;68.50;;;;;;5085229;28;43498;-70
2023/01/01 06:42:38;;;;;;;0.90;0.90;;;18.10;68.80;;;;;;5086421;28;43446;-70
2023/01/01 06:45:07;;;;;;;1.00;1.00;;;18.20;68.60;;;;;;5086135;28;43994;-72
2023/01/01 06:47:35;;;;;;;1.20;1.20;;;18.30;68.20;;;;;;5085853;28;43574;-71
2023/01/01 06:50:07;;;;;;;0.90;0.90;;;18.30;68.00;;;;;;5061561;28;43421;-71
2023/01/01 06:52:35;;;;;;;0.80;0.80;;;18.30;68.00;;;;;;5081664;28;43416;-71
2023/01/01 06:55:05;;;;;;;1.20;1.20;;;18.30;68.20;;;;;;5074411;28;43968;-70
2023/01/01 06:57:33;;;;;;;1.00;1.00;;;18.20;68.30;;;;;;5085808;28;43422;-70
2023/01/01 07:00:01;;;;;;;1.10;1.10;;;18.30;68.30;;;;;;5086114;28;43386;-71
2023/01/01 07:02:29;;;;;;;1.00;1.00;;;18.30;68.30;;;;;;5086074;28;44028;-70
2023/01/01 07:04:57;;;;;;;0.90;0.90;;;18.20;68.30;;;;;;5085871;28;43831;-72
2023/01/01 07:07:25;;;;;;;1.00;1.00;;;18.20;68.30;;;;;;5086098;28;43508;-70
2023/01/01 07:10:00;;;;;;;1.10;1.10;;;18.10;68.50;;;;;;5085470;27;43398;-71
2023/01/01 07:12:30;;;;;;;1.10;1.10;;;18.10;68.60;;;;;;5089850;28;43639;-71
2023/01/01 07:14:58;;;;;;;1.00;1.00;;;18.20;68.60;;;;;;5071106;28;46104;-70
2023/01/01 07:17:25;;;;;;;1.10;1.10;;;18.20;68.50;;;;;;5070636;28;45121;-72
2023/01/01 07:19:53;;;;;;;0.93;0.93;;;18.10;68.50;;;;;;5088766;27;43491;-69
2023/01/01 07:22:21;;;;;;;1.00;1.00;;;18.10;68.60;;;;;;5086544;28;43491;-71
2023/01/01 07:24:49;;;;;;;1.00;1.00;;;18.10;69.60;;;;;;5066440;28;45770;-71
2023/01/01 07:27:17;;;;;;;1.10;1.10;;;18.10;68.80;;;;;;5089718;28;43442;-70
2023/01/01 07:29:46;;;;;;;1.00;1.00;;;18.20;68.50;;;;;;5070854;28;44055;-71
2023/01/01 07:32:16;;;;;;;1.37;1.37;;;18.40;68.20;;;;;;5090128;28;43961;-70
2023/01/01 07:34:44;;;;;;;1.10;1.10;;;18.40;67.80;;;;;;5089252;28;43930;-72
2023/01/01 07:37:19;;;;;;;1.00;1.00;;;18.40;67.70;;;;;;5069673;28;44681;-70
2023/01/01 07:39:47;;;;;;;1.00;1.00;;;18.30;67.90;;;;;;5086146;28;43456;-70
2023/01/01 07:42:15;;;;;;;0.97;0.97;;;18.40;68.00;;;;;;5089549;28;44270;-70
2023/01/01 07:44:43;;;;;;;1.10;1.10;;;18.40;68.00;;;;;;5070540;28;45868;-72
2023/01/01 07:47:17;;;;;;;0.90;0.90;;;18.30;68.00;;;;;;5089546;28;43446;-71
2023/01/01 07:49:45;;;;;;;0.90;0.90;;;18.30;68.10;;;;;;5089351;28;43456;-71
2023/01/01 07:52:13;;;;;;;1.13;1.13;;;18.20;68.10;;;;;;5069125;28;43524;-72
2023/01/01 07:54:41;;;;;;;1.10;1.10;;;18.20;68.40;;;;;;5088935;28;43919;-71
2023/01/01 07:57:09;;;;;;;1.10;1.10;;;18.20;68.50;;;;;;5089277;28;43360;-72
2023/01/01 07:59:37;;;;;;;1.10;1.00;;;18.20;68.40;;;;;;5088682;28;43443;-70
2023/01/01 08:02:05;;;;;;;1.00;1.00;;;18.20;68.30;;;;;;5088868;28;43388;-71
2023/01/01 08:04:35;;;;;;;1.00;1.00;;;18.20;68.40;;;;;;5085796;28;43850;-71
2023/01/01 08:07:03;;;;;;;1.00;1.00;;;18.20;68.50;;;;;;5088786;28;43437;-70
2023/01/01 08:09:31;;;;;;;1.10;1.10;;;18.10;68.70;;;;;;5070317;28;43491;-71
2023/01/01 08:11:58;;;;;;;1.00;1.00;;;18.10;68.70;;;;;;5076158;28;43476;-72
2023/01/01 08:14:26;;;;;;;1.00;1.00;;;18.10;68.50;;;;;;5090448;27;43599;-71
2023/01/01 08:16:55;;;;;;;1.03;1.03;;;18.20;68.60;;;;;;5087757;28;43447;-71
2023/01/01 08:19:22;;;;;;;0.90;0.90;;;18.10;68.50;;;;;;5088607;28;43457;-72
2023/01/01 08:21:52;;;;;;;1.00;1.00;;;18.10;68.60;;;;;;5088218;27;43426;-71
2023/01/01 08:24:20;;;;;;;1.00;1.00;;;18.10;68.90;;;;;;5070320;28;46101;-71
2023/01/01 08:26:48;;;;;;;1.10;1.10;;;18.10;68.80;;;;;;5088408;28;43929;-71
2023/01/01 08:29:16;;;;;;;1.00;1.00;;;18.20;68.40;;;;;;5088957;28;43417;-71
2023/01/01 08:31:44;;;;;;;1.00;1.00;;;18.40;68.10;;;;;;5088612;28;43514;-71
2023/01/01 08:34:13;;;;;;;0.90;0.90;;;18.40;67.80;;;;;;5081969;28;43700;-71
2023/01/01 08:36:41;;;;;;;1.00;1.00;;;18.40;67.70;;;;;;5088624;28;44443;-70
2023/01/01 08:39:10;;;;;;;0.90;0.90;;;18.40;68.00;;;;;;5088332;28;44113;-72
2023/01/01 08:41:39;;;;;;;0.90;0.90;;;18.40;68.10;;;;;;5088335;28;43371;-71
2023/01/01 08:44:07;;;;;;;0.80;0.80;;;18.40;68.00;;;;;;5088129;28;43926;-71
2023/01/01 08:46:35;;;;;;;1.00;1.00;;;18.30;67.90;;;;;;5084668;28;43557;-72
2023/01/01 08:49:03;;;;;;;0.90;0.90;;;18.30;68.00;;;;;;5086597;28;43750;-71
2023/01/01 08:51:31;;;;;;;1.07;1.07;;;18.30;68.20;;;;;;5088526;28;43512;-71
2023/01/01 08:53:59;;;;;;;0.97;0.97;;;18.20;68.40;;;;;;5088268;28;43999;-72
2023/01/01 08:56:28;;;;;;;1.07;1.07;;;18.20;68.60;;;;;;5088251;28;43462;-72
2023/01/01 08:58:56;;;;;;;0.90;0.90;;;18.20;68.40;;;;;;5088241;28;43540;-71
2023/01/01 09:01:31;;;;;;;0.90;0.90;;;18.20;68.40;;;;;;5085071;28;43514;-71
2023/01/01 09:03:59;;;;;;;0.80;0.80;;;18.20;68.40;;;;;;5087608;28;44211;-71
2023/01/01 09:06:27;;;;;;;0.83;0.83;;;18.10;68.50;;;;;;5087708;28;43828;-73
2023/01/01 09:08:55;;;;;;;1.00;1.00;;;18.10;68.70;;;;;;5082627;28;43736;-70
2023/01/01 09:11:24;;;;;;;1.03;1.03;;;18.10;68.90;;;;;;5088564;28;44091;-72
2023/01/01 09:13:53;;;;;;;0.80;0.80;;;18.30;68.60;;;;;;5087771;28;43915;-71
2023/01/01 09:16:21;;;;;;;0.90;0.90;;;18.30;68.20;;;;;;5082661;28;43456;-71
2023/01/01 09:18:49;;;;;;;0.80;0.80;;;18.40;68.10;;;;;;5088107;28;43481;-70
2023/01/01 09:21:17;;;;;;;1.00;1.00;;;18.30;68.00;;;;;;5088042;28;43552;-72
2023/01/01 09:23:45;;;;;;;0.97;0.97;;;18.30;68.20;;;;;;5087779;28;44124;-71
2023/01/01 09:26:13;;;;;;;0.90;0.90;;;18.30;68.30;;;;;;5068929;28;45023;-71
2023/01/01 09:28:41;;;;;;;0.90;0.90;;;18.30;68.30;;;;;;5087628;28;43473;-71
2023/01/01 09:31:10;;;;;;;1.03;1.03;;;18.30;68.30;;;;;;5088238;28;43467;-72
2023/01/01 09:33:39;;;;;;;0.80;0.80;;;18.20;68.30;;;;;;5087306;27;43774;-71
2023/01/01 09:36:14;;;;;;;0.90;0.90;;;18.20;68.40;;;;;;5083950;28;43797;-71
2023/01/01 09:38:42;;;;;;;1.00;1.00;;;18.10;68.70;;;;;;5084752;28;43486;-71
2023/01/01 09:41:14;;;;;;;0.90;0.90;;;18.10;68.70;;;;;;5087456;28;43751;-71
2023/01/01 09:43:45;;;;;;;0.97;0.97;;;18.20;68.70;;;;;;5086881;28;43924;-71
2023/01/01 09:46:14;;;;;;;0.90;0.90;;;18.10;68.60;;;;;;5068607;28;45084;-70
2023/01/01 09:48:47;;;;;;;1.00;1.00;;;18.10;68.70;;;;;;5069248;28;43538;-69
2023/01/01 09:51:16;;;;;;;0.90;0.90;;;18.10;68.80;;;;;;5084139;28;43458;-71
2023/01/01 09:53:47;;;;;;;0.80;0.80;;;18.10;69.10;;;;;;5086922;28;43845;-71
2023/01/01 09:56:18;;;;;;;0.93;0.93;;;18.10;68.90;;;;;;5068696;28;44907;-70
2023/01/01 09:58:46;;;;;;;0.80;0.80;;;18.10;68.70;;;;;;5085551;28;43478;-70
2023/01/01 10:01:20;;;;;;;0.90;0.90;;;18.10;68.70;;;;;;5087438;28;43478;-71
2023/01/01 10:03:48;;;;;;;1.10;1.10;;;18.10;68.80;;;;;;5086871;28;43946;-71
2023/01/01 10:06:21;;;;;;;1.00;1.00;;;18.10;68.90;;;;;;5086571;27;43470;-70
2023/01/01 10:09:09;;;;;;;0.83;0.83;;;18.10;69.20;;;;;;5087376;28;43919;-72
2023/01/01 10:11:42;;;;;;;0.90;0.90;;;18.20;69.00;;;;;;5086176;28;43434;-72
2023/01/01 10:14:16;;;;;;;1.10;1.03;;;18.30;68.50;;;;;;5086957;28;43986;-71
2023/01/01 10:16:46;;;;;;;1.30;1.23;;;18.40;68.20;;;;;;5086026;28;43496;-71
2023/01/01 10:19:22;;;;;;;1.40;1.30;;;18.40;68.00;;;;;;5086735;28;43539;-69
2023/01/01 10:21:50;;;;;;;1.50;1.50;;;18.30;67.90;;;;;;5087456;28;43951;-70
2023/01/01 10:24:27;;;;;;;2.07;1.60;;;18.30;67.50;;;;;;5068171;28;46177;-71
2023/01/01 10:26:55;;;;;;;3.33;1.70;;;18.30;67.30;;;;;;5086255;28;43500;-70
2023/01/01 10:29:25;;;;;;;2.00;1.90;;;18.30;67.70;;;;;;5087207;28;43417;-70
2023/01/01 10:31:55;;;;;;;1.77;1.67;;;18.20;67.90;;;;;;5087835;27;43473;-71
2023/01/01 10:34:25;;;;;;;2.10;1.90;;;18.20;68.10;;;;;;5078544;27;43702;-71
2023/01/01 10:36:54;;;;;;;2.43;1.80;;;18.20;68.50;;;;;;5086347;28;43444;-69
2023/01/01 10:39:22;;;;;;;4.57;2.03;;;18.20;68.50;;;;;;5061461;28;43514;-70
2023/01/01 10:41:50;;;;;;;2.93;1.70;;;18.20;68.40;;;;;;5087031;28;43458;-70
2023/01/01 10:44:21;;;;;;;2.00;1.90;;;18.20;68.40;;;;;;5083103;28;43911;-71
2023/01/01 10:46:50;;;;;;;2.40;1.63;;;18.20;68.50;;;;;;5082765;28;43434;-70
2023/01/01 10:49:20;;;;;;;4.67;2.13;;;18.10;68.70;;;;;;5082289;27;43458;-71
2023/01/01 10:51:48;;;;;;;2.00;1.80;;;18.10;69.00;;;;;;5087096;28;43485;-71
2023/01/01 10:54:24;;;;;;;2.10;1.87;;;18.10;68.80;;;;;;5067630;28;46113;-71
2023/01/01 10:56:58;;;;;;;1.70;1.60;;;18.10;68.70;;;;;;5082309;28;43996;-71
2023/01/01 10:59:34;;;;;;;1.83;1.80;;;18.10;68.70;;;;;;5086802;28;43484;-71
2023/01/01 11:02:18;;;;;;;3.40;2.00;;;18.10;68.70;;;;;;5084081;28;43407;-70
2023/01/01 11:04:48;;;;;;;2.13;1.70;;;18.10;68.90;;;;;;5086291;28;43618;-70
2023/01/01 11:07:28;;;;;;;2.63;1.80;;;18.10;69.20;;;;;;5081706;28;43538;-70
2023/01/01 11:09:59;;;;;;;3.20;1.80;;;18.20;69.10;;;;;;5081048;28;44008;-70
2023/01/01 11:12:33;;;;;;;2.30;2.10;;;18.30;68.70;;;;;;5082110;28;43457;-71
2023/01/01 11:15:23;;;;;;;4.53;2.00;;;18.40;68.30;;;;;;5085836;28;44300;-72
2023/01/01 11:17:51;;;;;;;2.33;2.10;;;18.40;68.00;;;;;;5085172;28;43976;-71
2023/01/01 11:20:20;;;;;;;2.00;1.70;;;18.40;68.00;;;;;;5067389;28;43457;-70
2023/01/01 11:22:51;;;;;;;2.47;1.93;;;18.40;68.40;;;;;;5081755;28;43487;-71
2023/01/01 11:25:21;;;;;;;7.30;1.93;;;18.40;68.40;;;;;;5085446;28;45027;-70
2023/01/01 11:27:49;;;;;;;2.10;2.00;;;18.40;68.30;;;;;;5086474;27;43430;-73
2023/01/01 11:30:22;;;;;;;1.73;1.47;;;18.30;68.20;;;;;;5085683;28;43379;-70
2023/01/01 11:32:52;;;;;;;2.27;2.07;;;18.30;68.50;;;;;;5082750;28;43512;-71
2023/01/01 11:35:25;;;;;;;2.27;2.07;;;18.20;68.50;;;;;;5084297;28;43602;-70
2023/01/01 11:37:53;;;;;;;1.77;1.67;;;18.20;69.10;;;;;;5085955;28;43351;-70
2023/01/01 11:40:23;;;;;;;2.40;1.87;;;18.20;68.90;;;;;;5067551;28;44009;-70
2023/01/01 11:42:52;;;;;;;1.53;1.43;;;18.20;68.70;;;;;;5085954;28;43434;-71
2023/01/01 11:45:26;;;;;;;1.90;1.80;;;18.20;68.80;;;;;;5085734;28;43833;-71
2023/01/01 11:48:01;;;;;;;1.83;1.73;;;18.20;69.00;;;;;;5067041;28;44639;-71
2023/01/01 11:50:32;;;;;;;1.80;1.70;;;18.20;69.20;;;;;;5085387;28;43405;-73
2023/01/01 11:53:17;;;;;;;1.67;1.67;;;18.20;69.50;;;;;;5083633;28;43418;-71
2023/01/01 11:55:46;;;;;;;1.47;1.47;;;18.20;69.20;;;;;;5085716;27;43899;-71
2023/01/01 11:58:16;;;;;;;1.80;1.70;;;18.20;69.10;;;;;;5090923;27;43506;-70
2023/01/01 12:00:47;;;;;;;1.90;1.80;;;18.20;69.20;;;;;;5088483;28;43488;-71
2023/01/01 12:03:20;;;;;;;2.50;1.80;;;18.10;69.30;;;;;;5081104;28;43526;-72
2023/01/01 12:05:51;;;;;;;1.67;1.67;;;18.10;69.70;;;;;;5083689;28;44002;-71
2023/01/01 12:08:25;;;;;;;1.90;1.80;;;18.20;69.70;;;;;;5088477;28;43379;-69
2023/01/01 12:10:55;;;;;;;1.80;1.70;;;18.30;69.70;;;;;;5084747;28;43412;-71
2023/01/01 12:13:25;;;;;;;1.50;1.40;;;18.40;69.20;;;;;;5089270;28;43440;-70
2023/01/01 12:15:57;;;;;;;2.43;1.57;;;18.50;68.90;;;;;;5070513;28;45641;-71
2023/01/01 12:18:27;;;;;;;1.70;1.60;;;18.40;68.70;;;;;;5087669;28;43474;-71
2023/01/01 12:20:58;;;;;;;2.23;2.13;;;18.40;68.90;;;;;;5088844;28;43957;-72
2023/01/01 12:23:26;;;;;;;1.80;1.70;;;18.40;68.80;;;;;;5089503;28;43526;-71
2023/01/01 12:25:58;;;;;;;1.90;1.77;;;18.40;68.70;;;;;;5087751;27;43755;-71
2023/01/01 12:28:31;;;;;;;1.70;1.60;;;18.40;68.70;;;;;;5088746;28;43537;-71
2023/01/01 12:31:00;;;;;;;1.50;1.50;;;18.30;68.80;;;;;;5088456;28;43379;-71
2023/01/01 12:33:38;;;;;;;1.60;1.60;;;18.30;69.00;;;;;;5069795;28;43435;-71
2023/01/01 12:36:15;;;;;;;1.53;1.50;;;18.20;69.30;;;;;;5088189;28;43945;-70
2023/01/01 12:39:25;;;;;;;1.90;1.80;;;18.30;69.10;;;;;;5083468;28;43543;-69
2023/01/01 12:41:56;;;;;;;1.60;1.60;;;18.30;69.10;;;;;;5076461;28;43540;-72
2023/01/01 12:44:27;;;;;;;1.43;1.43;;;18.20;69.10;;;;;;5070358;28;44005;-70
2023/01/01 12:46:56;;;;;;;1.50;1.43;;;18.20;69.30;;;;;;5081506;28;43666;-70
2023/01/01 12:49:36;;;;;;;1.80;1.70;;;18.20;69.60;;;;;;5088212;28;43442;-71
2023/01/01 12:52:14;;;;;;;1.60;1.60;;;18.20;69.50;;;;;;5088415;28;43402;-71
2023/01/01 12:55:02;;;;;;;1.30;1.30;;;18.20;69.30;;;;;;5089878;27;43408;-71
2023/01/01 12:57:32;;;;;;;1.40;1.40;;;18.20;69.20;;;;;;5044210;28;44512;-72
2023/01/01 13:00:01;;;;;;;1.60;1.60;;;18.20;69.30;;;;;;5086619;28;43478;-71
2023/01/01 13:02:30;;;;;;;1.70;1.60;;;18.10;69.30;;;;;;5087930;28;43526;-70
2023/01/01 13:05:04;;;;;;;1.73;1.63;;;18.10;69.60;;;;;;5087986;28;43388;-71
2023/01/01 13:07:35;;;;;;;1.50;1.50;;;18.20;69.40;;;;;;5087892;28;43993;-70
2023/01/01 13:10:07;;;;;;;1.63;1.53;;;18.30;69.00;;;;;;5087526;28;43430;-71
2023/01/01 13:12:36;;;;;;;1.63;1.63;;;18.40;68.70;;;;;;5088230;28;43908;-70